KRRL/RRL METAR and TAF weather

Enter ICAO airport designator
Station Type Date Time Source
KRRL METAR 2019/10/15 21:35 UTC NOAA

KRRL 152135Z AUTO 35004KT 5SM -RA OVC007 06/06 A2971 RMK AO2 T00560055 TSNO


Station Type Date Time Source
KRRL Decoded METAR 2019/10/15 21:35 UTC NOAA

Merrill, Merrill Municipal Airport, WI, United States (KRRL) 45-11N 089-42W
Oct 15, 2019 - 05:35 PM EDT / 2019.10.15 2135 UTC
Wind: from the N (350 degrees) at 5 MPH (4 KT):0
Visibility: 5 mile(s):0
Sky conditions: overcast
Weather: light rain
Temperature: 42.1 F (5.6 C)
Dew Point: 41.9 F (5.5 C)
Relative Humidity: 99%
Pressure (altimeter): 29.71 in. Hg (1006 hPa)
ob: KRRL 152135Z AUTO 35004KT 5SM -RA OVC007 06/06 A2971 RMK AO2 T00560055 TSNO
cycle: 21

Station Type Date Time Source
KRRL TAF UTC NOAA

Error!

Example: see airport list